Time;durP1;ratioP1;P1;durP2;ratioP2;P2;SDS_P1;SDS_P2;PMS_P1;PMS_P2;Temp;Humidity;BMP_temperature;BMP_pressure;BME280_temperature;BME280_humidity;BME280_pressure;Samples;Min_cycle;Max_cycle;Signal;HPM_P1;HPM_P2
2021/03/18 00:00:44;;;;;;;2.80;0.90;;;2.40;90.30;;;;;;2065676;28;20065;-83
2021/03/18 00:01:46;;;;;;;3.85;0.90;;;2.40;90.30;;;;;;2077832;28;20029;-83
2021/03/18 00:02:47;;;;;;;2.20;0.70;;;2.50;90.30;;;;;;2074026;28;20412;-84
2021/03/18 00:03:50;;;;;;;1.83;0.80;;;2.40;90.50;;;;;;2056880;28;20030;-83
2021/03/18 00:04:50;;;;;;;3.00;0.82;;;2.40;90.20;;;;;;2068609;28;20089;-83
2021/03/18 00:05:52;;;;;;;2.67;1.02;;;2.50;90.30;;;;;;2090282;28;20065;-85
2021/03/18 00:06:52;;;;;;;3.03;0.80;;;2.40;90.20;;;;;;2082091;28;20033;-83
2021/03/18 00:07:53;;;;;;;2.83;0.77;;;2.40;90.20;;;;;;2074167;28;20035;-83
2021/03/18 00:08:54;;;;;;;3.67;0.93;;;2.50;90.20;;;;;;2077204;28;20527;-83
2021/03/18 00:10:00;;;;;;;2.17;0.70;;;2.40;90.20;;;;;;2074176;28;20038;-83
2021/03/18 00:11:07;;;;;;;2.58;1.00;;;2.50;90.20;;;;;;2067100;28;20117;-84
2021/03/18 00:12:07;;;;;;;2.10;0.80;;;2.50;90.20;;;;;;2068106;28;20030;-84
2021/03/18 00:13:08;;;;;;;3.00;0.93;;;2.50;90.30;;;;;;2063632;28;20393;-84
2021/03/18 00:14:14;;;;;;;3.65;1.00;;;2.50;90.20;;;;;;2064473;28;20030;-84
2021/03/18 00:15:15;;;;;;;2.08;0.63;;;2.40;90.20;;;;;;2065763;28;20025;-84
2021/03/18 00:16:17;;;;;;;2.20;0.73;;;2.50;90.30;;;;;;2067223;28;20030;-84
2021/03/18 00:17:18;;;;;;;1.38;0.68;;;2.50;90.30;;;;;;2081721;28;20414;-84
2021/03/18 00:18:20;;;;;;;2.45;0.80;;;2.50;90.30;;;;;;2072994;28;20030;-84
2021/03/18 00:19:21;;;;;;;2.63;0.70;;;2.50;90.30;;;;;;2067183;28;20492;-84
2021/03/18 00:20:22;;;;;;;2.42;0.77;;;2.50;90.30;;;;;;2080565;28;20033;-84
2021/03/18 00:21:22;;;;;;;2.95;0.90;;;2.50;90.30;;;;;;2081168;28;20472;-84
2021/03/18 00:22:23;;;;;;;3.85;0.93;;;2.40;90.30;;;;;;2081218;28;20555;-83
2021/03/18 00:23:24;;;;;;;3.25;0.95;;;2.50;90.30;;;;;;2073293;28;20435;-84
2021/03/18 00:24:24;;;;;;;3.50;1.02;;;2.50;90.30;;;;;;2065490;28;20031;-83
2021/03/18 00:25:25;;;;;;;3.60;0.90;;;2.50;90.30;;;;;;2065210;28;20137;-83
2021/03/18 00:26:29;;;;;;;1.17;0.70;;;2.50;90.30;;;;;;2065416;28;20070;-84
2021/03/18 00:27:29;;;;;;;2.72;0.80;;;2.40;90.50;;;;;;2073787;28;20018;-84
2021/03/18 00:28:31;;;;;;;3.03;0.80;;;2.40;90.20;;;;;;2057272;28;20125;-83
2021/03/18 00:29:32;;;;;;;2.92;0.70;;;2.50;90.30;;;;;;2058240;28;20489;-83
2021/03/18 00:30:33;;;;;;;1.40;0.80;;;2.50;90.20;;;;;;2066023;28;20038;-83
2021/03/18 00:31:35;;;;;;;2.40;0.93;;;2.50;90.20;;;;;;2065507;28;20078;-83
2021/03/18 00:32:37;;;;;;;1.67;0.75;;;2.50;90.20;;;;;;2058723;28;20065;-83
2021/03/18 00:33:38;;;;;;;2.45;0.90;;;2.50;90.20;;;;;;2073586;28;20092;-83
2021/03/18 00:34:38;;;;;;;2.22;0.70;;;2.40;90.20;;;;;;2081569;28;20508;-83
2021/03/18 00:35:39;;;;;;;3.05;0.73;;;2.40;90.20;;;;;;2065466;28;20034;-83
2021/03/18 00:36:43;;;;;;;2.40;0.80;;;2.50;90.30;;;;;;2073262;28;20061;-83
2021/03/18 00:37:46;;;;;;;1.88;0.95;;;2.40;90.30;;;;;;2065497;28;20057;-83
2021/03/18 00:38:47;;;;;;;1.77;0.70;;;2.50;90.30;;;;;;2064271;28;20027;-83
2021/03/18 00:39:48;;;;;;;2.30;0.75;;;2.40;90.30;;;;;;2074661;28;20049;-83
2021/03/18 00:40:53;;;;;;;3.97;0.98;;;2.40;90.30;;;;;;2067197;28;20120;-82
2021/03/18 00:41:54;;;;;;;2.83;0.73;;;2.40;90.30;;;;;;2063717;28;20049;-83
2021/03/18 00:42:59;;;;;;;2.50;1.00;;;2.40;90.30;;;;;;2071224;28;20033;-83
2021/03/18 00:43:59;;;;;;;2.97;0.80;;;2.40;90.30;;;;;;2081987;28;20551;-83
2021/03/18 00:45:00;;;;;;;2.30;0.68;;;2.40;90.30;;;;;;2081685;28;20038;-83
2021/03/18 00:46:01;;;;;;;3.25;0.82;;;2.40;90.30;;;;;;2069273;28;20530;-83
2021/03/18 00:47:02;;;;;;;2.90;0.80;;;2.30;90.30;;;;;;2065482;28;20125;-83
2021/03/18 00:48:05;;;;;;;5.55;0.90;;;2.40;90.30;;;;;;2064872;28;20054;-83
2021/03/18 00:49:07;;;;;;;3.03;0.93;;;2.30;90.30;;;;;;2071698;28;20128;-83
2021/03/18 00:50:09;;;;;;;1.80;0.80;;;2.30;90.40;;;;;;2073379;28;20042;-84
2021/03/18 00:51:14;;;;;;;4.90;0.90;;;2.30;90.40;;;;;;2065602;28;20042;-83
2021/03/18 00:52:15;;;;;;;2.67;0.73;;;2.30;90.40;;;;;;2065894;28;20073;-83
2021/03/18 00:53:22;;;;;;;2.72;0.95;;;2.30;90.40;;;;;;2074228;28;20022;-84
2021/03/18 00:54:23;;;;;;;1.48;0.75;;;2.30;90.40;;;;;;2073176;28;20388;-83
2021/03/18 00:55:24;;;;;;;4.05;0.90;;;2.30;90.40;;;;;;2073456;28;20022;-83
2021/03/18 00:56:25;;;;;;;3.80;0.85;;;2.30;90.40;;;;;;2065277;28;20053;-83
2021/03/18 00:57:26;;;;;;;4.13;1.20;;;2.30;90.40;;;;;;2061553;28;20492;-83
2021/03/18 00:58:26;;;;;;;3.53;1.05;;;2.30;90.40;;;;;;2073112;28;20116;-83
2021/03/18 00:59:27;;;;;;;4.82;1.08;;;2.30;90.40;;;;;;2072082;28;20022;-83
2021/03/18 01:00:39;;;;;;;4.47;1.27;;;2.30;90.40;;;;;;2056925;28;20121;-83
2021/03/18 01:01:40;;;;;;;3.92;0.95;;;2.30;90.30;;;;;;2063612;28;20034;-83
2021/03/18 01:02:41;;;;;;;6.55;1.17;;;2.30;90.30;;;;;;2063585;28;20033;-83
2021/03/18 01:03:41;;;;;;;4.15;1.20;;;2.30;90.30;;;;;;2074271;28;20025;-83
2021/03/18 01:04:44;;;;;;;5.10;1.05;;;2.30;90.30;;;;;;2074416;28;20475;-85
2021/03/18 01:06:15;;;;;;;2.97;1.00;;;2.30;90.30;;;;;;2081501;28;20395;-84
2021/03/18 01:07:16;;;;;;;3.70;1.13;;;2.30;90.60;;;;;;2069936;28;20048;-83
2021/03/18 01:08:19;;;;;;;4.93;1.08;;;2.30;90.30;;;;;;2074671;28;20022;-82
2021/03/18 01:09:20;;;;;;;2.10;0.95;;;2.30;90.30;;;;;;2081311;28;20495;-84
2021/03/18 01:10:25;;;;;;;3.65;1.42;;;2.30;90.30;;;;;;2068572;28;20019;-83
2021/03/18 01:11:36;;;;;;;2.65;1.20;;;2.30;90.30;;;;;;2065020;28;20077;-83
2021/03/18 01:12:36;;;;;;;3.38;1.10;;;2.30;90.30;;;;;;2073259;28;20033;-83
2021/03/18 01:13:41;;;;;;;3.10;1.05;;;2.30;90.30;;;;;;2072293;28;20495;-83
2021/03/18 01:14:41;;;;;;;6.13;1.15;;;2.30;90.30;;;;;;2074580;28;20022;-84
2021/03/18 01:15:42;;;;;;;3.53;1.45;;;2.30;90.30;;;;;;2073298;28;20373;-81
2021/03/18 01:16:47;;;;;;;2.17;1.17;;;2.30;90.40;;;;;;2059986;28;20396;-80
2021/03/18 01:17:48;;;;;;;3.65;1.00;;;2.30;90.30;;;;;;2058194;28;20039;-81
2021/03/18 01:19:00;;;;;;;3.97;1.13;;;2.30;90.30;;;;;;2073942;28;20029;-83
2021/03/18 01:20:02;;;;;;;3.85;1.40;;;2.30;90.30;;;;;;2073118;28;20032;-83
2021/03/18 01:21:09;;;;;;;5.30;1.10;;;2.30;90.30;;;;;;2065492;28;20508;-86
2021/03/18 01:22:10;;;;;;;2.15;1.10;;;2.30;90.30;;;;;;2065298;28;20281;-83
2021/03/18 01:23:11;;;;;;;4.53;1.25;;;2.30;90.30;;;;;;2065484;28;20157;-83
2021/03/18 01:24:13;;;;;;;2.33;1.05;;;2.30;90.30;;;;;;2070844;28;20057;-82
2021/03/18 01:25:14;;;;;;;5.07;1.30;;;2.20;90.30;;;;;;2073293;28;20050;-82
2021/03/18 01:26:15;;;;;;;3.70;1.17;;;2.30;90.30;;;;;;2069703;28;20026;-83
2021/03/18 01:27:18;;;;;;;5.38;1.10;;;2.20;90.30;;;;;;2072500;28;20370;-83
2021/03/18 01:28:19;;;;;;;2.30;1.00;;;2.20;90.30;;;;;;2064645;28;20084;-82
2021/03/18 01:29:19;;;;;;;3.05;1.10;;;2.30;90.40;;;;;;2057742;28;20023;-83
2021/03/18 01:30:23;;;;;;;3.08;0.88;;;2.20;90.30;;;;;;2055108;28;20027;-82
2021/03/18 01:31:24;;;;;;;2.53;1.00;;;2.20;90.40;;;;;;2062508;28;20073;-81
2021/03/18 01:32:25;;;;;;;4.60;1.33;;;2.30;90.40;;;;;;2083007;28;20091;-87
2021/03/18 01:33:26;;;;;;;3.08;1.05;;;2.20;90.40;;;;;;2074212;28;20094;-84
2021/03/18 01:34:27;;;;;;;3.80;1.10;;;2.30;90.40;;;;;;2066259;28;20456;-83
2021/03/18 01:35:28;;;;;;;2.58;1.00;;;2.30;90.40;;;;;;2073232;28;20065;-83
2021/03/18 01:36:30;;;;;;;2.13;0.93;;;2.30;90.40;;;;;;2057177;28;20027;-83
2021/03/18 01:37:30;;;;;;;2.35;0.90;;;2.30;90.40;;;;;;2057948;28;20073;-83
2021/03/18 01:38:31;;;;;;;3.65;1.40;;;2.30;90.40;;;;;;2067776;28;20069;-83
2021/03/18 01:39:32;;;;;;;3.75;1.27;;;2.30;90.40;;;;;;2064871;28;20030;-83
2021/03/18 01:40:35;;;;;;;5.18;1.35;;;2.30;90.40;;;;;;2063129;28;20041;-83
2021/03/18 01:41:36;;;;;;;3.85;1.20;;;2.30;90.70;;;;;;2073827;28;20029;-84
2021/03/18 01:42:37;;;;;;;3.38;1.10;;;2.30;90.40;;;;;;2074070;28;20038;-81
2021/03/18 01:43:38;;;;;;;5.47;1.60;;;2.30;90.40;;;;;;2081036;28;20103;-81
2021/03/18 01:44:39;;;;;;;3.35;0.98;;;2.30;90.40;;;;;;2080723;28;20499;-81
2021/03/18 01:45:40;;;;;;;2.95;1.02;;;2.30;90.40;;;;;;2079259;28;20029;-81
2021/03/18 01:46:41;;;;;;;3.85;1.30;;;2.30;90.40;;;;;;2081167;28;20530;-81
2021/03/18 01:47:44;;;;;;;3.55;0.93;;;2.30;90.50;;;;;;2070924;28;20026;-81
2021/03/18 01:48:46;;;;;;;2.08;0.80;;;2.30;90.50;;;;;;2057375;28;20529;-81
2021/03/18 01:49:47;;;;;;;2.22;1.00;;;2.30;90.50;;;;;;2072201;28;20037;-81
2021/03/18 01:50:48;;;;;;;4.60;1.13;;;2.30;90.50;;;;;;2064137;28;20030;-81
2021/03/18 01:51:49;;;;;;;5.82;1.30;;;2.30;90.50;;;;;;2056883;28;20031;-81
2021/03/18 01:52:50;;;;;;;3.75;1.00;;;2.30;90.50;;;;;;2072632;28;20032;-81
2021/03/18 01:53:52;;;;;;;1.88;0.82;;;2.30;90.50;;;;;;2072793;28;20125;-81
2021/03/18 01:54:52;;;;;;;4.78;1.00;;;2.30;90.50;;;;;;2072622;28;20116;-81
2021/03/18 01:55:56;;;;;;;3.75;1.30;;;2.30;90.50;;;;;;2065005;28;20420;-82
2021/03/18 01:56:58;;;;;;;3.72;0.82;;;2.30;90.50;;;;;;2057549;28;20031;-82
2021/03/18 01:57:59;;;;;;;3.58;1.20;;;2.30;90.50;;;;;;2072623;28;20022;-82
2021/03/18 01:59:00;;;;;;;3.50;1.08;;;2.30;90.50;;;;;;2072893;28;20018;-81
2021/03/18 02:00:01;;;;;;;3.97;1.00;;;2.30;90.50;;;;;;2071687;28;20128;-82
2021/03/18 02:01:06;;;;;;;1.83;0.88;;;2.30;90.50;;;;;;2072039;28;20010;-81
2021/03/18 02:02:07;;;;;;;2.83;1.10;;;2.30;90.50;;;;;;2078204;28;20033;-82
2021/03/18 02:03:08;;;;;;;4.97;1.08;;;2.30;90.50;;;;;;2064475;28;20140;-82
2021/03/18 02:04:08;;;;;;;3.17;1.33;;;2.30;90.50;;;;;;2048852;28;20106;-82
2021/03/18 02:05:10;;;;;;;3.00;0.90;;;2.30;90.50;;;;;;2056485;28;20034;-81
2021/03/18 02:06:10;;;;;;;2.90;0.98;;;2.20;90.50;;;;;;2056843;28;20516;-82
2021/03/18 02:07:11;;;;;;;2.83;0.98;;;2.20;90.50;;;;;;2064882;28;20034;-81
2021/03/18 02:08:12;;;;;;;2.85;1.00;;;2.20;90.50;;;;;;2072973;28;20030;-82
2021/03/18 02:09:12;;;;;;;3.00;0.90;;;2.30;90.60;;;;;;2072756;28;20033;-81
2021/03/18 02:10:13;;;;;;;4.80;1.05;;;2.20;90.60;;;;;;2064931;28;20437;-82
2021/03/18 02:11:14;;;;;;;3.85;1.17;;;2.20;90.60;;;;;;2056545;28;20086;-81
2021/03/18 02:12:14;;;;;;;3.28;1.08;;;2.20;90.60;;;;;;2064940;28;20591;-82
2021/03/18 02:13:16;;;;;;;3.20;0.93;;;2.20;90.60;;;;;;2064462;28;20092;-81
2021/03/18 02:14:17;;;;;;;3.90;1.00;;;2.20;90.60;;;;;;2072589;28;20104;-82
2021/03/18 02:15:21;;;;;;;4.50;1.20;;;2.20;90.60;;;;;;2064587;28;20034;-82
2021/03/18 02:16:27;;;;;;;4.07;1.25;;;2.20;90.60;;;;;;2057553;28;20462;-82
2021/03/18 02:17:36;;;;;;;4.53;1.10;;;2.20;90.60;;;;;;2065329;28;20027;-81
2021/03/18 02:19:18;;;;;;;3.53;1.13;;;2.20;90.60;;;;;;2070726;28;20299;-81
2021/03/18 02:20:43;;;;;;;3.55;1.00;;;2.20;90.60;;;;;;2051969;28;20603;-81
2021/03/18 02:21:59;;;;;;;2.80;1.15;;;2.20;90.60;;;;;;2076359;28;20034;-81
2021/03/18 02:23:27;;;;;;;3.15;0.95;;;2.20;90.60;;;;;;2073059;28;20395;-81
2021/03/18 02:25:01;;;;;;;4.40;0.95;;;2.20;90.60;;;;;;2075939;28;20136;-81
2021/03/18 02:26:39;;;;;;;3.35;1.20;;;2.20;90.50;;;;;;2076538;28;20069;-82
2021/03/18 02:27:53;;;;;;;3.45;1.05;;;2.10;90.50;;;;;;2076726;28;20132;-81
2021/03/18 02:29:12;;;;;;;2.38;0.90;;;2.10;90.50;;;;;;2072286;28;20022;-81
2021/03/18 02:30:40;;;;;;;2.30;1.00;;;2.10;90.40;;;;;;2067006;28;20040;-81
2021/03/18 02:31:59;;;;;;;2.63;1.00;;;2.10;90.40;;;;;;2074485;28;20114;-82
2021/03/18 02:33:32;;;;;;;3.22;1.00;;;2.10;90.40;;;;;;2072566;28;20018;-81
2021/03/18 02:35:14;;;;;;;2.15;1.10;;;2.10;90.40;;;;;;2068816;28;20037;-82
2021/03/18 02:36:19;;;;;;;2.35;0.85;;;2.10;90.40;;;;;;2062342;28;20064;-82
2021/03/18 02:37:22;;;;;;;2.78;1.05;;;2.10;90.40;;;;;;2057132;28;20117;-82
2021/03/18 02:38:38;;;;;;;3.05;1.02;;;2.10;90.40;;;;;;2061551;28;20041;-81
2021/03/18 02:40:01;;;;;;;3.33;1.05;;;2.10;90.50;;;;;;2058599;28;20050;-82
2021/03/18 02:41:15;;;;;;;4.85;1.02;;;2.10;90.50;;;;;;2068441;28;20032;-82
2021/03/18 02:42:20;;;;;;;4.68;1.45;;;2.00;90.50;;;;;;2080212;28;20140;-81
2021/03/18 02:43:23;;;;;;;4.93;1.20;;;2.00;90.50;;;;;;2072140;28;20030;-81
2021/03/18 02:44:27;;;;;;;3.88;1.17;;;2.00;90.50;;;;;;2064367;28;20027;-81
2021/03/18 02:45:35;;;;;;;3.35;1.00;;;2.00;90.50;;;;;;2069019;28;20036;-81
2021/03/18 02:46:39;;;;;;;3.30;0.98;;;2.00;90.60;;;;;;2080605;28;20087;-82
2021/03/18 02:47:42;;;;;;;2.38;1.00;;;2.00;90.60;;;;;;2065824;28;20081;-81
2021/03/18 02:48:45;;;;;;;2.88;1.00;;;2.00;90.60;;;;;;2072855;28;20108;-82
2021/03/18 02:49:49;;;;;;;4.03;1.10;;;1.90;90.60;;;;;;2080776;28;20049;-82
2021/03/18 02:50:52;;;;;;;2.47;1.20;;;2.00;90.90;;;;;;2070287;28;20025;-82
2021/03/18 02:51:54;;;;;;;2.88;1.20;;;1.90;90.60;;;;;;2069420;28;20492;-81
2021/03/18 02:52:56;;;;;;;4.15;1.20;;;1.90;90.70;;;;;;2077777;28;20124;-81
2021/03/18 02:54:01;;;;;;;3.15;1.08;;;1.90;90.70;;;;;;2080869;28;20025;-82
2021/03/18 02:55:05;;;;;;;4.20;1.17;;;1.90;90.70;;;;;;2087576;28;20625;-82
2021/03/18 02:56:07;;;;;;;3.03;1.23;;;2.00;90.70;;;;;;2072383;28;20431;-83
2021/03/18 02:57:11;;;;;;;3.70;1.35;;;2.00;90.70;;;;;;2073235;28;20105;-81
2021/03/18 02:58:14;;;;;;;3.95;1.52;;;2.00;90.70;;;;;;2057863;28;20417;-82
2021/03/18 02:59:20;;;;;;;4.35;1.10;;;2.00;90.70;;;;;;2072525;28;20018;-82
2021/03/18 03:00:22;;;;;;;3.72;1.30;;;2.00;90.70;;;;;;2080469;28;20037;-82
2021/03/18 03:01:24;;;;;;;3.47;1.20;;;2.00;90.70;;;;;;2080763;28;20049;-82
2021/03/18 03:02:28;;;;;;;4.75;1.33;;;2.00;90.70;;;;;;2074227;28;20077;-82
2021/03/18 03:03:31;;;;;;;2.92;1.30;;;2.00;90.70;;;;;;2072658;28;20018;-82
2021/03/18 03:04:35;;;;;;;1.92;1.05;;;2.00;90.70;;;;;;2064321;28;20078;-82
2021/03/18 03:05:36;;;;;;;2.78;1.20;;;2.00;90.70;;;;;;2063396;28;20069;-82
2021/03/18 03:06:38;;;;;;;4.55;1.50;;;2.00;90.70;;;;;;2064284;28;20038;-82
2021/03/18 03:07:41;;;;;;;2.97;1.20;;;2.00;90.70;;;;;;2072714;28;20057;-81
2021/03/18 03:08:43;;;;;;;3.65;1.40;;;2.00;90.70;;;;;;2056745;28;20090;-81
2021/03/18 03:09:47;;;;;;;4.10;1.63;;;2.00;90.70;;;;;;2056395;28;20493;-82
2021/03/18 03:10:51;;;;;;;5.63;1.60;;;2.10;90.70;;;;;;2071831;28;20033;-82
2021/03/18 03:11:54;;;;;;;4.15;1.42;;;2.10;90.70;;;;;;2072291;28;20085;-80
2021/03/18 03:12:57;;;;;;;4.10;1.45;;;2.10;90.70;;;;;;2073268;28;20393;-82
2021/03/18 03:13:58;;;;;;;3.95;1.40;;;2.10;90.70;;;;;;2072528;28;20018;-82
2021/03/18 03:15:00;;;;;;;2.97;1.52;;;2.10;90.70;;;;;;2070654;28;20026;-81
2021/03/18 03:16:05;;;;;;;3.63;1.23;;;2.10;90.70;;;;;;2064299;28;20062;-82
2021/03/18 03:17:07;;;;;;;4.82;1.63;;;2.10;90.70;;;;;;2072491;28;20064;-82
2021/03/18 03:18:11;;;;;;;3.53;1.40;;;2.10;90.70;;;;;;2066101;28;20035;-82
2021/03/18 03:19:12;;;;;;;6.78;2.30;;;2.10;90.70;;;;;;2066117;28;20561;-82
2021/03/18 03:20:15;;;;;;;3.28;1.50;;;2.10;90.70;;;;;;2073736;28;20401;-82
2021/03/18 03:21:18;;;;;;;3.47;1.70;;;2.10;90.70;;;;;;2074102;28;20025;-82
2021/03/18 03:22:19;;;;;;;3.85;1.67;;;2.10;90.70;;;;;;2066346;28;20122;-82
2021/03/18 03:23:23;;;;;;;4.18;1.77;;;2.10;90.70;;;;;;2065931;28;20570;-82
2021/03/18 03:24:25;;;;;;;4.60;1.58;;;2.10;91.00;;;;;;2074646;28;20026;-82
2021/03/18 03:25:26;;;;;;;4.00;1.60;;;2.10;90.70;;;;;;2080680;28;20044;-82
2021/03/18 03:26:28;;;;;;;3.08;1.60;;;2.10;90.70;;;;;;2065786;28;20030;-82
2021/03/18 03:27:29;;;;;;;4.43;1.75;;;2.10;90.70;;;;;;2065729;28;20030;-82
2021/03/18 03:28:31;;;;;;;4.90;1.80;;;2.10;90.70;;;;;;2066004;28;20034;-82
2021/03/18 03:29:34;;;;;;;5.60;1.77;;;2.10;90.70;;;;;;2082923;28;20065;-82
2021/03/18 03:30:34;;;;;;;5.13;1.70;;;2.10;90.70;;;;;;2073547;28;20022;-82
2021/03/18 03:31:35;;;;;;;5.78;1.73;;;2.10;90.70;;;;;;2057904;28;20070;-82
2021/03/18 03:32:36;;;;;;;4.63;1.80;;;2.10;90.70;;;;;;2065877;28;20400;-81
2021/03/18 03:33:39;;;;;;;4.35;1.80;;;2.10;90.70;;;;;;2071297;28;20392;-83
2021/03/18 03:34:40;;;;;;;3.33;1.58;;;2.10;90.70;;;;;;2074253;28;20065;-82
2021/03/18 03:35:41;;;;;;;3.78;1.73;;;2.10;90.70;;;;;;2072344;28;20111;-83
2021/03/18 03:36:42;;;;;;;5.18;1.67;;;2.10;90.80;;;;;;2057132;28;20476;-82
2021/03/18 03:37:44;;;;;;;4.13;1.75;;;2.10;90.80;;;;;;2065754;28;20033;-82
2021/03/18 03:38:45;;;;;;;4.93;1.60;;;2.10;90.80;;;;;;2069781;28;20556;-82
2021/03/18 03:39:46;;;;;;;4.57;1.95;;;2.10;90.70;;;;;;2061194;28;20480;-82
2021/03/18 03:40:47;;;;;;;4.45;1.77;;;2.10;90.70;;;;;;2073482;28;20034;-82
2021/03/18 03:41:48;;;;;;;3.38;1.63;;;2.10;90.70;;;;;;2073199;28;20116;-81
2021/03/18 03:42:49;;;;;;;3.70;1.67;;;2.10;90.70;;;;;;2076760;28;20018;-81
2021/03/18 03:43:49;;;;;;;5.55;1.88;;;2.10;90.70;;;;;;2075870;28;20058;-82
2021/03/18 03:44:50;;;;;;;4.38;1.95;;;2.10;91.00;;;;;;2073868;28;20058;-81
2021/03/18 03:45:52;;;;;;;5.50;1.95;;;2.10;90.70;;;;;;2074003;28;20022;-82
2021/03/18 03:46:53;;;;;;;4.47;2.00;;;2.10;90.70;;;;;;2073203;28;20117;-83
2021/03/18 03:47:55;;;;;;;4.10;1.77;;;2.10;90.70;;;;;;2067964;28;20022;-82
2021/03/18 03:48:56;;;;;;;3.92;1.67;;;2.10;90.60;;;;;;2073942;28;20030;-83
2021/03/18 03:49:57;;;;;;;4.47;1.70;;;2.10;90.60;;;;;;2073732;28;20121;-82
2021/03/18 03:51:01;;;;;;;5.75;2.08;;;2.10;90.60;;;;;;2073161;28;20026;-82
2021/03/18 03:52:13;;;;;;;5.93;1.95;;;2.10;90.60;;;;;;2065843;28;20026;-82
2021/03/18 03:53:27;;;;;;;5.07;1.83;;;2.10;90.60;;;;;;2069959;28;20077;-82
2021/03/18 03:54:31;;;;;;;3.83;1.70;;;2.00;90.50;;;;;;2074096;28;20561;-83
2021/03/18 03:55:58;;;;;;;5.43;2.08;;;2.00;90.50;;;;;;2077573;28;20085;-82
2021/03/18 03:57:11;;;;;;;4.20;1.77;;;2.10;90.60;;;;;;2076113;28;20026;-82
2021/03/18 03:58:30;;;;;;;3.83;1.58;;;2.10;90.50;;;;;;2073992;28;20026;-82
2021/03/18 03:59:34;;;;;;;5.68;1.83;;;2.10;90.50;;;;;;2081257;28;20029;-83
2021/03/18 04:00:39;;;;;;;4.13;1.63;;;2.00;90.50;;;;;;2075956;28;20026;-82
2021/03/18 04:01:50;;;;;;;3.67;1.83;;;2.10;90.50;;;;;;2080188;28;20040;-82
2021/03/18 04:02:55;;;;;;;4.05;1.38;;;2.10;90.60;;;;;;2082366;28;20032;-83
2021/03/18 04:04:14;;;;;;;4.22;1.70;;;2.00;90.50;;;;;;2074311;28;20026;-82
2021/03/18 04:05:16;;;;;;;5.68;1.77;;;2.10;90.60;;;;;;2068598;28;20022;-82
2021/03/18 04:06:17;;;;;;;4.07;1.55;;;2.10;90.60;;;;;;2072565;28;20030;-83
2021/03/18 04:07:22;;;;;;;3.45;1.50;;;2.00;90.60;;;;;;2069558;28;20069;-82
2021/03/18 04:08:25;;;;;;;3.72;1.65;;;2.00;90.60;;;;;;2065107;28;20034;-82
2021/03/18 04:09:28;;;;;;;4.40;1.90;;;2.00;90.70;;;;;;2076675;28;20102;-82
2021/03/18 04:10:30;;;;;;;4.15;2.15;;;2.00;90.70;;;;;;2066566;28;20031;-83
2021/03/18 04:11:36;;;;;;;3.53;1.63;;;2.00;91.00;;;;;;2055275;28;20540;-82
2021/03/18 04:12:40;;;;;;;4.78;1.88;;;2.00;90.70;;;;;;2066772;28;20022;-82
2021/03/18 04:13:42;;;;;;;4.15;1.70;;;2.00;90.70;;;;;;2080210;28;20466;-83
2021/03/18 04:14:53;;;;;;;4.63;1.65;;;2.00;90.70;;;;;;2082037;28;20032;-82
2021/03/18 04:16:00;;;;;;;3.40;1.63;;;2.00;90.80;;;;;;2075790;28;20045;-82
2021/03/18 04:17:09;;;;;;;6.30;1.80;;;2.00;90.80;;;;;;2065624;28;20193;-83
2021/03/18 04:18:12;;;;;;;4.47;1.80;;;2.00;90.80;;;;;;2074881;28;20038;-83
2021/03/18 04:19:19;;;;;;;4.32;1.60;;;2.00;90.80;;;;;;2073626;28;20485;-82
2021/03/18 04:20:24;;;;;;;3.92;1.40;;;1.90;90.70;;;;;;2073866;28;20030;-82
2021/03/18 04:21:26;;;;;;;4.30;1.60;;;2.00;90.80;;;;;;2073371;28;20112;-83
2021/03/18 04:22:30;;;;;;;3.88;1.50;;;2.00;90.80;;;;;;2074032;28;20030;-83
2021/03/18 04:23:30;;;;;;;3.78;1.60;;;1.90;90.80;;;;;;2071687;28;20037;-83
2021/03/18 04:24:34;;;;;;;4.07;1.55;;;1.90;90.80;;;;;;2081756;28;20383;-82
2021/03/18 04:25:36;;;;;;;2.95;1.38;;;1.90;91.10;;;;;;2075631;28;20480;-82
2021/03/18 04:26:39;;;;;;;4.25;1.80;;;1.90;90.80;;;;;;2078028;28;20066;-82
2021/03/18 04:27:40;;;;;;;5.07;1.88;;;1.90;90.80;;;;;;2078263;28;20022;-83
2021/03/18 04:28:41;;;;;;;4.45;1.50;;;1.90;90.80;;;;;;2079658;28;20097;-84
2021/03/18 04:29:44;;;;;;;5.97;1.80;;;1.80;90.80;;;;;;2083361;28;20042;-82
2021/03/18 04:30:45;;;;;;;4.15;1.58;;;1.80;90.70;;;;;;2087522;28;20038;-83
2021/03/18 04:31:46;;;;;;;5.00;1.92;;;1.80;90.70;;;;;;2079752;28;20041;-82
2021/03/18 04:32:48;;;;;;;4.07;1.85;;;1.80;90.70;;;;;;2067282;28;20113;-82
2021/03/18 04:33:49;;;;;;;3.80;1.67;;;1.80;90.80;;;;;;2074456;28;20420;-82
2021/03/18 04:34:52;;;;;;;4.28;1.58;;;1.80;90.80;;;;;;2080006;28;20057;-83
2021/03/18 04:35:55;;;;;;;4.03;1.75;;;1.80;90.80;;;;;;2073256;28;20033;-83
2021/03/18 04:36:57;;;;;;;3.88;1.80;;;1.80;90.80;;;;;;2065915;28;20074;-82
2021/03/18 04:38:03;;;;;;;5.38;1.90;;;1.80;90.80;;;;;;2065798;28;20034;-82
2021/03/18 04:39:06;;;;;;;2.72;1.40;;;1.80;90.70;;;;;;2058561;28;20011;-82
2021/03/18 04:40:11;;;;;;;4.25;1.70;;;1.80;90.70;;;;;;2066067;28;20042;-83
2021/03/18 04:41:11;;;;;;;4.28;1.60;;;1.90;90.70;;;;;;2073756;28;20124;-82
2021/03/18 04:42:14;;;;;;;5.65;1.80;;;1.90;90.70;;;;;;2073627;28;20026;-82
2021/03/18 04:43:15;;;;;;;3.13;1.45;;;1.90;90.60;;;;;;2065493;28;20078;-82
2021/03/18 04:44:17;;;;;;;5.10;1.90;;;1.90;90.60;;;;;;2073437;28;20026;-83
2021/03/18 04:45:21;;;;;;;3.65;1.60;;;1.90;90.60;;;;;;2081797;28;20420;-82
2021/03/18 04:46:23;;;;;;;4.63;1.73;;;1.90;90.60;;;;;;2081593;28;20484;-82
2021/03/18 04:47:25;;;;;;;3.78;1.40;;;1.90;90.70;;;;;;2079679;28;20499;-82
2021/03/18 04:48:27;;;;;;;5.40;1.52;;;1.90;90.70;;;;;;2060257;28;20118;-82
2021/03/18 04:49:29;;;;;;;3.60;1.60;;;1.90;90.60;;;;;;2057172;28;20026;-82
2021/03/18 04:50:31;;;;;;;3.00;1.50;;;1.90;90.70;;;;;;2057398;28;20042;-83
2021/03/18 04:51:32;;;;;;;3.00;1.55;;;1.90;90.70;;;;;;2056839;28;20535;-83
2021/03/18 04:52:32;;;;;;;2.45;1.33;;;1.90;90.70;;;;;;2058663;28;20101;-82
2021/03/18 04:53:34;;;;;;;4.57;1.40;;;1.90;90.70;;;;;;2063367;28;20508;-82
2021/03/18 04:54:35;;;;;;;4.25;1.48;;;1.90;90.80;;;;;;2065114;28;20037;-82
2021/03/18 04:55:36;;;;;;;5.63;1.90;;;1.90;90.80;;;;;;2049263;29;20114;-82
2021/03/18 04:56:40;;;;;;;3.88;1.77;;;2.00;90.80;;;;;;2057375;28;20051;-83
2021/03/18 04:58:03;;;;;;;3.72;1.63;;;2.00;90.80;;;;;;2061851;28;20026;-82
2021/03/18 04:59:06;;;;;;;4.00;1.85;;;2.00;90.80;;;;;;2076156;28;20048;-81
2021/03/18 05:00:07;;;;;;;4.57;1.60;;;2.00;90.80;;;;;;2073203;28;20080;-81
2021/03/18 05:01:09;;;;;;;4.07;1.33;;;2.00;90.70;;;;;;2065217;28;20050;-82
2021/03/18 05:02:12;;;;;;;3.45;1.58;;;2.10;90.80;;;;;;2049583;28;20517;-82
2021/03/18 05:03:14;;;;;;;3.10;1.50;;;2.10;90.80;;;;;;2064825;28;20038;-81
2021/03/18 05:04:17;;;;;;;3.95;1.70;;;2.10;90.70;;;;;;2073411;28;20112;-82
2021/03/18 05:05:21;;;;;;;3.00;1.55;;;2.10;90.70;;;;;;2073197;28;20037;-82
2021/03/18 05:06:24;;;;;;;3.22;1.48;;;2.10;90.70;;;;;;2066054;28;20400;-82
2021/03/18 05:07:27;;;;;;;3.10;1.48;;;2.10;90.70;;;;;;2073745;28;20516;-82
2021/03/18 05:08:29;;;;;;;5.13;1.88;;;2.20;90.70;;;;;;2080160;28;20063;-81
2021/03/18 05:09:30;;;;;;;4.35;1.67;;;2.20;90.70;;;;;;2073299;28;20033;-83
2021/03/18 05:10:34;;;;;;;3.83;1.38;;;2.20;90.70;;;;;;2068729;28;20093;-82
2021/03/18 05:11:37;;;;;;;5.18;1.80;;;2.20;90.70;;;;;;2073327;28;20026;-82
2021/03/18 05:12:39;;;;;;;6.55;1.98;;;2.20;90.70;;;;;;2076700;28;20048;-82
2021/03/18 05:13:40;;;;;;;4.50;1.90;;;2.20;90.70;;;;;;2073205;28;20018;-81
2021/03/18 05:14:41;;;;;;;5.05;1.75;;;2.20;90.70;;;;;;2076810;28;20040;-82
2021/03/18 05:15:42;;;;;;;4.78;1.85;;;2.20;90.70;;;;;;2056939;28;20190;-82
2021/03/18 05:16:43;;;;;;;3.80;1.65;;;2.20;90.70;;;;;;2057472;28;20037;-82
2021/03/18 05:17:44;;;;;;;4.47;1.63;;;2.20;90.70;;;;;;2069660;28;20523;-82
2021/03/18 05:18:46;;;;;;;4.25;1.65;;;2.20;90.70;;;;;;2064980;28;20493;-82
2021/03/18 05:19:46;;;;;;;3.72;1.60;;;2.20;90.70;;;;;;2071304;28;20503;-83
2021/03/18 05:20:48;;;;;;;4.63;1.70;;;2.30;90.70;;;;;;2072820;28;20044;-82
2021/03/18 05:21:49;;;;;;;4.63;1.88;;;2.20;90.70;;;;;;2072594;28;20034;-82
2021/03/18 05:22:52;;;;;;;3.78;1.70;;;2.20;90.70;;;;;;2065160;28;20080;-82
2021/03/18 05:23:55;;;;;;;4.20;1.60;;;2.30;90.70;;;;;;2057108;28;20027;-82
2021/03/18 05:24:57;;;;;;;2.70;1.30;;;2.30;90.70;;;;;;2057679;28;20023;-81
2021/03/18 05:25:58;;;;;;;3.83;1.80;;;2.30;90.70;;;;;;2069460;28;20053;-82
2021/03/18 05:26:58;;;;;;;4.18;1.52;;;2.30;90.70;;;;;;2076089;28;20054;-82
2021/03/18 05:28:00;;;;;;;3.88;1.70;;;2.30;90.70;;;;;;2063835;28;20031;-82
2021/03/18 05:29:00;;;;;;;2.70;1.40;;;2.30;90.70;;;;;;2064817;28;20030;-82
2021/03/18 05:30:02;;;;;;;5.50;2.00;;;2.30;90.70;;;;;;2057903;28;20382;-82
2021/03/18 05:31:03;;;;;;;5.65;1.63;;;2.30;90.70;;;;;;2064894;28;20023;-82
2021/03/18 05:32:04;;;;;;;4.75;1.63;;;2.30;90.70;;;;;;2056735;28;20552;-82
2021/03/18 05:33:06;;;;;;;4.78;1.80;;;2.30;90.70;;;;;;2064437;28;20030;-82
2021/03/18 05:34:06;;;;;;;3.38;1.67;;;2.30;90.70;;;;;;2049284;28;20031;-82
2021/03/18 05:35:09;;;;;;;3.58;1.75;;;2.40;90.70;;;;;;2057242;28;20524;-82
2021/03/18 05:36:10;;;;;;;5.07;2.00;;;2.30;90.70;;;;;;2057228;28;20501;-82
2021/03/18 05:37:11;;;;;;;4.00;1.75;;;2.40;90.70;;;;;;2065075;28;20023;-81